Terminal Aerodrome Forecast
Issued by NWS

Home | Current Version | Previous Version | Graphics & Text | Print | Product List | Glossary On
Versions: 1 2 3 4 5 6 7 8 9 10 11 12 13 14 15 16 17 18
000
FTUS43 KTOP 211731
TAFFOE
TAF
KFOE 211731Z 2118/2218 04014G23KT P6SM BKN070
     FM220200 06010KT P6SM BKN200
     FM221400 09013KT P6SM BKN130=

USA.gov is the U.S. government's official web portal to all federal, state and local government web resources and services.